createdAt,value
2019-03-28T00:02:09.680Z,50.67
2019-03-28T00:04:40.695Z,47.83
2019-03-28T00:07:11.579Z,50.50
2019-03-28T00:09:42.399Z,51.17
2019-03-28T00:12:12.827Z,50.43
2019-03-28T00:14:43.364Z,53.10
2019-03-28T00:17:14.026Z,47.40
2019-03-28T00:19:47.445Z,67.70
2019-03-28T00:22:29.516Z,54.53
2019-03-28T00:25:04.638Z,53.50
2019-03-28T00:27:35.146Z,49.47
2019-03-28T00:30:05.682Z,53.50
2019-03-28T00:32:36.086Z,53.57
2019-03-28T00:35:07.297Z,55.17
2019-03-28T00:37:37.928Z,53.40
2019-03-28T00:40:08.373Z,50.37
2019-03-28T00:42:38.407Z,56.63
2019-03-28T00:45:08.768Z,53.50
2019-03-28T00:47:38.833Z,53.07
2019-03-28T00:50:09.411Z,53.07
2019-03-28T00:52:39.450Z,53.80
2019-03-28T00:55:09.578Z,53.50
2019-03-28T00:57:39.931Z,55.27
2019-03-28T01:00:10.323Z,52.80
2019-03-28T01:02:40.354Z,49.10
2019-03-28T01:05:10.557Z,51.27
2019-03-28T01:07:40.685Z,50.47
2019-03-28T01:10:10.896Z,54.50
2019-03-28T01:12:40.994Z,53.23
2019-03-28T01:15:11.152Z,59.70
2019-03-28T01:17:41.155Z,54.00
2019-03-28T01:20:11.351Z,53.63
2019-03-28T01:22:41.394Z,50.50
2019-03-28T01:25:11.466Z,52.00
2019-03-28T01:27:41.543Z,49.50
2019-03-28T01:30:11.892Z,54.97
2019-03-28T01:32:42.014Z,52.53
2019-03-28T01:35:12.099Z,50.77
2019-03-28T01:37:42.256Z,54.33
2019-03-28T01:40:12.255Z,55.43
2019-03-28T01:42:42.263Z,60.27
2019-03-28T01:45:12.883Z,48.37
2019-03-28T01:47:43.269Z,56.00
2019-03-28T01:50:13.544Z,60.20
2019-03-28T01:52:43.587Z,56.00
2019-03-28T01:55:13.982Z,54.33
2019-03-28T01:57:44.026Z,54.97
2019-03-28T02:00:15.014Z,63.13
2019-03-28T02:05:14.494Z,54.63
2019-03-28T02:07:44.540Z,52.10
2019-03-28T02:10:14.640Z,52.57
2019-03-28T02:12:44.710Z,57.27
2019-03-28T02:15:14.918Z,56.30
2019-03-28T02:17:44.938Z,53.27
2019-03-28T02:20:15.792Z,53.33
2019-03-28T02:22:45.811Z,54.37
2019-03-28T02:25:15.912Z,60.93
2019-03-28T02:27:45.993Z,52.77
2019-03-28T02:30:17.845Z,55.97
2019-03-28T02:32:47.907Z,57.80
2019-03-28T02:35:18.036Z,54.37
2019-03-28T02:37:48.049Z,53.40
2019-03-28T02:40:18.165Z,61.10
2019-03-28T02:42:48.298Z,52.30
2019-03-28T02:45:18.322Z,51.87
2019-03-28T02:47:48.464Z,57.17
2019-03-28T02:50:18.515Z,54.93
2019-03-28T02:52:48.719Z,54.53
2019-03-28T02:55:18.758Z,55.60
2019-03-28T02:57:48.858Z,58.07
2019-03-28T03:00:19.074Z,56.47
2019-03-28T03:02:49.179Z,58.60
2019-03-28T03:05:19.317Z,55.77
2019-03-28T03:07:49.399Z,54.60
2019-03-28T03:10:19.568Z,59.80
2019-03-28T03:12:49.959Z,56.43
2019-03-28T03:15:20.339Z,57.67
2019-03-28T03:17:50.772Z,57.83
2019-03-28T03:20:20.955Z,54.33
2019-03-28T03:22:50.952Z,58.37
2019-03-28T03:25:21.064Z,58.30
2019-03-28T03:27:58.523Z,56.20
2019-03-28T03:30:22.849Z,56.37
2019-03-28T03:32:53.016Z,56.63
2019-03-28T03:35:23.458Z,58.17
2019-03-28T03:37:53.595Z,54.73
2019-03-28T03:40:23.794Z,57.53
2019-03-28T03:42:54.347Z,54.10
2019-03-28T03:45:24.435Z,58.77
2019-03-28T03:47:54.838Z,57.00
2019-03-28T03:50:29.135Z,61.17
2019-03-28T03:53:00.340Z,57.13
2019-03-28T03:55:30.381Z,61.23
2019-03-28T03:58:14.550Z,63.80
2019-03-28T04:00:34.010Z,56.63
2019-03-28T04:03:04.188Z,53.10
2019-03-28T04:05:34.228Z,53.13
2019-03-28T04:08:04.253Z,57.37
2019-03-28T04:10:34.470Z,58.90
2019-03-28T04:13:04.540Z,54.20
2019-03-28T04:15:37.933Z,56.43
2019-03-28T04:18:08.232Z,53.37
2019-03-28T04:20:38.308Z,56.97
2019-03-28T04:23:08.374Z,60.73
2019-03-28T04:25:39.751Z,58.30
2019-03-28T04:28:10.478Z,58.77
2019-03-28T04:30:40.570Z,59.97
2019-03-28T04:33:10.657Z,58.07
2019-03-28T04:35:41.135Z,50.73
2019-03-28T04:38:12.160Z,54.07
2019-03-28T04:40:42.266Z,56.17
2019-03-28T04:43:12.363Z,48.43
2019-03-28T04:45:42.537Z,55.30
2019-03-28T04:48:12.643Z,59.10
2019-03-28T04:50:42.742Z,53.70
2019-03-28T04:53:12.779Z,51.37
2019-03-28T04:55:42.936Z,56.60
2019-03-28T04:58:13.064Z,53.47
2019-03-28T05:00:43.258Z,48.23
2019-03-28T05:03:13.319Z,47.20
2019-03-28T05:05:43.382Z,44.80
2019-03-28T05:08:13.503Z,49.73
2019-03-28T05:10:43.623Z,58.53
2019-03-28T05:13:13.781Z,58.87
2019-03-28T05:15:44.346Z,58.70
2019-03-28T05:18:14.422Z,56.53
2019-03-28T05:20:44.501Z,54.00
2019-03-28T05:23:14.699Z,53.83
2019-03-28T05:25:44.751Z,52.30
2019-03-28T05:28:14.939Z,55.30
2019-03-28T05:30:45.580Z,55.77
2019-03-28T05:33:15.765Z,53.47
2019-03-28T05:35:45.857Z,52.60
2019-03-28T05:38:15.945Z,52.27
2019-03-28T05:40:46.027Z,54.47
2019-03-28T05:43:16.197Z,54.40
2019-03-28T05:45:47.590Z,55.97
2019-03-28T05:48:17.903Z,50.43
2019-03-28T05:50:48.085Z,51.73
2019-03-28T05:53:18.154Z,56.10
2019-03-28T05:55:48.268Z,53.63
2019-03-28T05:58:18.393Z,49.77
2019-03-28T06:00:51.266Z,50.80
2019-03-28T06:03:20.322Z,51.40
2019-03-28T06:05:50.433Z,54.20
2019-03-28T06:08:21.101Z,52.37
2019-03-28T06:10:51.138Z,43.37
2019-03-28T06:13:21.355Z,49.13
2019-03-28T06:15:51.408Z,46.13
2019-03-28T06:18:21.581Z,53.77
2019-03-28T06:20:51.666Z,49.70
2019-03-28T06:23:24.212Z,48.37
2019-03-28T06:25:54.367Z,50.27
2019-03-28T06:28:25.332Z,51.47
2019-03-28T06:30:56.045Z,45.27
2019-03-28T06:33:26.195Z,46.97
2019-03-28T06:35:56.398Z,46.97
2019-03-28T06:38:27.833Z,51.43
2019-03-28T06:40:57.970Z,45.70
2019-03-28T06:43:29.407Z,49.67
2019-03-28T06:45:59.459Z,46.37
2019-03-28T06:48:29.551Z,47.00
2019-03-28T06:51:00.007Z,54.63
2019-03-28T06:53:30.118Z,51.23
2019-03-28T06:56:00.790Z,54.87
2019-03-28T06:58:31.290Z,55.70
2019-03-28T07:01:01.354Z,49.93
2019-03-28T07:03:32.035Z,52.73
2019-03-28T07:06:02.104Z,56.40
2019-03-28T07:08:32.170Z,58.40
2019-03-28T07:11:02.581Z,56.23
2019-03-28T07:13:32.860Z,57.33
2019-03-28T07:16:03.212Z,53.97
2019-03-28T07:18:33.272Z,58.27
2019-03-28T07:21:03.341Z,55.70
2019-03-28T07:23:33.349Z,49.67
2019-03-28T07:26:03.456Z,60.73
2019-03-28T07:28:33.647Z,59.83
2019-03-28T07:31:04.103Z,58.50
2019-03-28T07:33:34.209Z,57.97
2019-03-28T07:36:04.398Z,58.80
2019-03-28T07:38:34.511Z,59.57
2019-03-28T07:41:04.681Z,58.60
2019-03-28T07:43:35.820Z,60.23
2019-03-28T07:46:06.320Z,56.87
2019-03-28T07:48:36.537Z,61.90
2019-03-28T07:51:06.615Z,63.23
2019-03-28T07:53:36.728Z,55.93
2019-03-28T07:56:06.875Z,62.20
2019-03-28T07:58:37.460Z,58.00
2019-03-28T08:01:07.556Z,61.27
2019-03-28T08:03:39.909Z,56.33
2019-03-28T08:06:11.283Z,59.73
2019-03-28T08:08:44.058Z,66.27
2019-03-28T08:11:12.629Z,54.10
2019-03-28T08:13:42.628Z,59.23
2019-03-28T08:16:12.622Z,60.77
2019-03-28T08:18:42.703Z,55.97
2019-03-28T08:21:12.584Z,62.17
2019-03-28T08:23:44.538Z,55.80
2019-03-28T08:26:14.515Z,56.77
2019-03-28T08:28:44.490Z,57.83
2019-03-28T08:31:15.023Z,59.77
2019-03-28T08:33:45.921Z,54.63
2019-03-28T08:36:16.693Z,55.13
2019-03-28T08:38:49.869Z,52.97
2019-03-28T08:41:20.272Z,52.87
2019-03-28T08:43:50.127Z,57.60
2019-03-28T08:46:20.136Z,58.27
2019-03-28T08:48:50.120Z,54.27
2019-03-28T08:51:20.065Z,59.27
2019-03-28T08:53:50.013Z,57.53
2019-03-28T08:56:20.014Z,58.53
2019-03-28T08:58:49.967Z,52.87
2019-03-28T09:01:20.622Z,51.90
2019-03-28T09:03:50.558Z,51.90
2019-03-28T09:06:20.521Z,47.83
2019-03-28T09:08:50.482Z,48.93
2019-03-28T09:11:21.587Z,44.07
2019-03-28T09:13:51.752Z,49.33
2019-03-28T09:16:21.829Z,49.73
2019-03-28T09:18:52.271Z,55.73
2019-03-28T09:21:22.541Z,54.60
2019-03-28T09:23:53.061Z,43.23
2019-03-28T09:26:23.262Z,48.20
2019-03-28T09:28:53.628Z,45.20
2019-03-28T09:31:23.983Z,45.33
2019-03-28T09:33:53.957Z,45.40
2019-03-28T09:36:23.922Z,41.03
2019-03-28T09:38:53.885Z,37.07
2019-03-28T09:41:24.180Z,35.00
2019-03-28T09:43:56.022Z,36.23
2019-03-28T09:46:26.250Z,40.27
2019-03-28T09:48:56.246Z,36.33
2019-03-28T09:51:26.334Z,35.23
2019-03-28T09:53:56.313Z,37.13
2019-03-28T09:56:26.229Z,27.93
2019-03-28T09:58:56.198Z,23.63
2019-03-28T10:01:26.271Z,22.50
2019-03-28T10:03:56.371Z,25.13
2019-03-28T10:06:26.433Z,27.00
2019-03-28T10:08:56.364Z,26.57
2019-03-28T10:11:26.343Z,28.93
2019-03-28T10:13:56.357Z,30.50
2019-03-28T10:16:27.503Z,34.13
2019-03-28T10:18:57.754Z,29.27
2019-03-28T10:21:27.945Z,33.27
2019-03-28T10:23:58.016Z,31.97
2019-03-28T10:26:28.098Z,28.00
2019-03-28T10:28:58.033Z,26.07
2019-03-28T10:31:28.324Z,32.07
2019-03-28T10:33:58.493Z,27.60
2019-03-28T10:36:28.601Z,27.70
2019-03-28T10:38:58.589Z,30.62
2019-03-28T10:41:28.904Z,33.58
2019-03-28T10:43:58.982Z,33.45
2019-03-28T10:46:31.857Z,27.55
2019-03-28T10:49:01.967Z,22.70
2019-03-28T10:51:32.033Z,25.43
2019-03-28T10:54:02.010Z,19.80
2019-03-28T10:56:32.029Z,21.87
2019-03-28T10:59:02.079Z,23.00
2019-03-28T11:01:47.475Z,20.17
2019-03-28T11:04:04.147Z,18.93
2019-03-28T11:06:34.393Z,22.23
2019-03-28T11:09:05.946Z,22.73
2019-03-28T11:11:36.755Z,19.33
2019-03-28T11:14:06.773Z,22.27
2019-03-28T11:16:39.354Z,23.60
2019-03-28T11:19:09.410Z,22.60
2019-03-28T11:21:39.457Z,24.18
2019-03-28T11:24:09.650Z,24.18
2019-03-28T11:26:39.958Z,25.57
2019-03-28T11:29:09.986Z,24.67
2019-03-28T11:31:46.264Z,27.30
2019-03-28T11:34:11.757Z,26.10
2019-03-28T11:36:41.729Z,22.13
2019-03-28T11:39:11.798Z,23.97
2019-03-28T11:41:41.746Z,22.98
2019-03-28T11:44:11.804Z,23.02
2019-03-28T11:46:41.718Z,22.77
2019-03-28T11:49:11.766Z,22.95
2019-03-28T11:51:42.055Z,23.20
2019-03-28T11:54:12.178Z,28.67
2019-03-28T11:56:42.235Z,26.05
2019-03-28T11:59:14.574Z,20.15
2019-03-28T12:01:44.984Z,25.73
2019-03-28T12:04:19.040Z,22.52
2019-03-28T12:06:52.781Z,22.80
2019-03-28T12:09:22.756Z,24.00
2019-03-28T12:11:53.191Z,20.43
2019-03-28T12:14:23.610Z,22.07
2019-03-28T12:16:54.346Z,21.17
2019-03-28T12:19:27.563Z,22.03
2019-03-28T12:22:01.168Z,16.30
2019-03-28T12:24:31.504Z,18.20
2019-03-28T12:27:01.761Z,16.87
2019-03-28T12:29:31.775Z,16.27
2019-03-28T12:32:13.310Z,16.55
2019-03-28T12:34:33.446Z,17.50
2019-03-28T12:37:03.371Z,15.53
2019-03-28T12:39:33.342Z,17.37
2019-03-28T12:42:03.458Z,16.07
2019-03-28T12:44:33.602Z,15.95
2019-03-28T12:47:03.685Z,18.98
2019-03-28T12:49:33.598Z,16.25
2019-03-28T12:52:03.706Z,15.95
2019-03-28T12:54:33.831Z,16.15
2019-03-28T12:57:06.933Z,13.05
2019-03-28T12:59:37.620Z,17.32
2019-03-28T13:02:11.900Z,13.30
2019-03-28T13:04:44.080Z,15.28
2019-03-28T13:07:15.642Z,11.15
2019-03-28T13:09:49.318Z,12.25
2019-03-28T13:12:24.103Z,12.65
2019-03-28T13:15:04.407Z,10.80
2019-03-28T13:17:41.854Z,9.38
2019-03-28T13:20:14.139Z,10.45
2019-03-28T13:22:44.650Z,11.33
2019-03-28T13:25:14.882Z,8.23
2019-03-28T13:27:45.088Z,9.03
2019-03-28T13:30:17.499Z,9.13
2019-03-28T13:32:51.041Z,9.10
2019-03-28T13:35:21.254Z,10.23
2019-03-28T13:37:51.841Z,7.22
2019-03-28T13:40:22.684Z,6.28
2019-03-28T13:42:56.156Z,6.62
2019-03-28T13:45:26.809Z,11.50
2019-03-28T13:47:57.401Z,8.00
2019-03-28T13:50:34.703Z,7.12
2019-03-28T13:53:04.687Z,8.48
2019-03-28T13:55:37.041Z,6.28
2019-03-28T13:58:15.905Z,4.62
2019-03-28T14:00:49.858Z,8.40
2019-03-28T14:03:20.397Z,5.22
2019-03-28T14:05:50.481Z,4.75
2019-03-28T14:08:20.592Z,3.55
2019-03-28T14:10:50.990Z,8.50
2019-03-28T14:13:21.663Z,7.17
2019-03-28T14:15:51.884Z,7.37
2019-03-28T14:18:21.900Z,9.55
2019-03-28T14:20:52.038Z,5.70
2019-03-28T14:23:22.055Z,5.25
2019-03-28T14:25:52.059Z,7.60
2019-03-28T14:28:22.110Z,3.35
2019-03-28T14:30:52.279Z,5.00
2019-03-28T14:33:22.352Z,5.47
2019-03-28T14:35:52.623Z,7.25
2019-03-28T14:38:22.698Z,3.95
2019-03-28T14:40:52.823Z,5.23
2019-03-28T14:43:24.003Z,5.15
2019-03-28T14:45:54.128Z,6.62
2019-03-28T14:48:24.287Z,4.55
2019-03-28T14:50:54.412Z,7.17
2019-03-28T14:53:24.601Z,5.20
2019-03-28T14:55:56.099Z,5.15
2019-03-28T14:58:27.488Z,8.98
2019-03-28T15:00:57.595Z,6.00
2019-03-28T15:03:27.857Z,8.05
2019-03-28T15:05:58.557Z,7.10
2019-03-28T15:08:28.733Z,7.53
2019-03-28T15:10:58.968Z,5.58
2019-03-28T15:13:29.045Z,7.40
2019-03-28T15:15:59.155Z,7.35
2019-03-28T15:18:29.934Z,7.27
2019-03-28T15:21:00.176Z,9.08
2019-03-28T15:23:30.248Z,7.17
2019-03-28T15:26:00.334Z,9.73
2019-03-28T15:28:30.472Z,6.22
2019-03-28T15:31:00.594Z,8.13
2019-03-28T15:33:39.556Z,9.18
2019-03-28T15:36:02.350Z,10.32
2019-03-28T15:38:32.492Z,8.60
2019-03-28T15:41:02.575Z,11.07
2019-03-28T15:43:32.634Z,9.13
2019-03-28T15:46:02.808Z,9.67
2019-03-28T15:48:32.991Z,12.53
2019-03-28T15:51:03.090Z,9.58
2019-03-28T15:53:33.150Z,10.67
2019-03-28T15:56:03.273Z,9.73
2019-03-28T15:58:33.373Z,11.77
2019-03-28T16:01:03.507Z,6.35
2019-03-28T16:03:33.579Z,7.43
2019-03-28T16:06:03.687Z,9.30
2019-03-28T16:08:34.383Z,8.50
2019-03-28T16:11:04.585Z,10.37
2019-03-28T16:13:37.433Z,8.77
2019-03-28T16:16:07.879Z,8.58
2019-03-28T16:18:38.315Z,7.67
2019-03-28T16:21:09.662Z,10.13
2019-03-28T16:23:39.778Z,9.20
2019-03-28T16:26:10.873Z,8.43
2019-03-28T16:28:42.192Z,7.55
2019-03-28T16:31:12.495Z,8.73
2019-03-28T16:33:42.751Z,6.67
2019-03-28T16:36:13.024Z,8.05
2019-03-28T16:38:43.445Z,8.58
2019-03-28T16:41:13.591Z,7.47
2019-03-28T16:43:44.079Z,6.37
2019-03-28T16:46:14.645Z,5.22
2019-03-28T16:48:59.856Z,6.45
2019-03-28T16:51:30.313Z,6.92
2019-03-28T16:54:08.314Z,7.97
2019-03-28T16:56:38.485Z,8.05
2019-03-28T16:59:08.984Z,6.83
2019-03-28T17:01:39.674Z,8.90
2019-03-28T17:04:19.953Z,8.08
2019-03-28T17:06:41.819Z,11.20
2019-03-28T17:09:12.147Z,8.73
2019-03-28T17:11:42.339Z,9.00
2019-03-28T17:14:12.489Z,6.33
2019-03-28T17:16:42.843Z,9.05
2019-03-28T17:19:13.157Z,11.27
2019-03-28T17:21:43.413Z,6.00
2019-03-28T17:24:13.566Z,9.30
2019-03-28T17:26:45.288Z,6.40
2019-03-28T17:29:15.701Z,6.83
2019-03-28T17:31:46.003Z,6.93
2019-03-28T17:34:16.157Z,6.00
2019-03-28T17:36:47.378Z,7.00
2019-03-28T17:39:17.685Z,8.13
2019-03-28T17:41:53.848Z,9.75
2019-03-28T17:44:24.211Z,9.57
2019-03-28T17:47:00.314Z,7.17
2019-03-28T17:49:30.384Z,6.97
2019-03-28T17:52:01.662Z,11.70
2019-03-28T17:54:31.923Z,7.97
2019-03-28T17:57:02.187Z,10.85
2019-03-28T17:59:32.362Z,7.80
2019-03-28T18:02:05.409Z,8.53
2019-03-28T18:04:47.417Z,7.90
2019-03-28T18:07:07.278Z,7.40
2019-03-28T18:09:37.803Z,8.87
2019-03-28T18:12:09.031Z,8.27
2019-03-28T18:14:39.186Z,10.13
2019-03-28T18:17:12.355Z,9.83
2019-03-28T18:19:44.192Z,11.87
2019-03-28T18:22:14.258Z,7.80
2019-03-28T18:24:44.389Z,8.93
2019-03-28T18:27:14.486Z,7.60
2019-03-28T18:29:45.656Z,11.17
2019-03-28T18:32:15.866Z,9.07
2019-03-28T18:34:46.060Z,9.90
2019-03-28T18:37:16.295Z,7.30
2019-03-28T18:39:46.422Z,5.30
2019-03-28T18:42:16.547Z,10.00
2019-03-28T18:44:47.582Z,6.03
2019-03-28T18:47:19.124Z,7.83
2019-03-28T18:49:50.233Z,7.23
2019-03-28T18:52:20.333Z,11.43
2019-03-28T18:54:52.461Z,7.27
2019-03-28T18:57:22.527Z,10.37
2019-03-28T18:59:54.107Z,13.80
2019-03-28T19:02:24.214Z,7.50
2019-03-28T19:04:56.616Z,11.07
2019-03-28T19:07:26.843Z,9.10
2019-03-28T19:09:56.879Z,7.00
2019-03-28T19:12:27.107Z,6.60
2019-03-28T19:14:57.344Z,6.07
2019-03-28T19:17:34.010Z,8.50
2019-03-28T19:20:04.324Z,8.67
2019-03-28T19:22:34.588Z,10.07
2019-03-28T19:25:05.484Z,7.10
2019-03-28T19:27:36.685Z,5.83
2019-03-28T19:30:09.632Z,6.50
2019-03-28T19:32:39.797Z,6.93
2019-03-28T19:35:13.588Z,7.03
2019-03-28T19:37:50.921Z,6.73
2019-03-28T19:40:42.578Z,8.27
2019-03-28T19:43:20.466Z,9.63
2019-03-28T19:45:47.697Z,7.50
2019-03-28T19:48:17.881Z,7.80
2019-03-28T19:50:49.488Z,6.53
2019-03-28T19:53:19.591Z,4.97
2019-03-28T19:55:49.792Z,7.73
2019-03-28T19:58:19.896Z,8.13
2019-03-28T20:00:50.046Z,6.23
2019-03-28T20:03:23.047Z,7.30
2019-03-28T20:05:52.110Z,9.17
2019-03-28T20:08:25.911Z,5.77
2019-03-28T20:10:59.362Z,7.80
2019-03-28T20:13:32.426Z,9.27
2019-03-28T20:16:02.483Z,10.37
2019-03-28T20:18:32.405Z,7.77
2019-03-28T20:21:02.467Z,7.67
2019-03-28T20:23:35.607Z,7.90
2019-03-28T20:26:06.264Z,10.10
2019-03-28T20:28:36.698Z,7.13
2019-03-28T20:31:06.574Z,13.20
2019-03-28T20:33:37.797Z,11.10
2019-03-28T20:36:35.599Z,9.80
2019-03-28T20:38:39.375Z,11.37
2019-03-28T20:41:09.793Z,11.03
2019-03-28T20:43:39.757Z,12.30
2019-03-28T20:46:09.723Z,13.40
2019-03-28T20:48:39.933Z,10.60
2019-03-28T20:51:10.363Z,12.73
2019-03-28T20:53:40.594Z,13.33
2019-03-28T20:56:10.591Z,10.37
2019-03-28T20:58:41.251Z,10.43
2019-03-28T21:01:11.500Z,14.20
2019-03-28T21:03:41.850Z,10.10
2019-03-28T21:06:15.594Z,13.67
2019-03-28T21:08:47.050Z,12.87
2019-03-28T21:11:18.698Z,13.70
2019-03-28T21:13:50.882Z,13.80
2019-03-28T21:16:24.036Z,16.20
2019-03-28T21:18:54.129Z,14.53
2019-03-28T21:21:24.836Z,11.60
2019-03-28T21:23:55.004Z,11.80
2019-03-28T21:26:25.429Z,12.37
2019-03-28T21:28:55.516Z,14.03
2019-03-28T21:31:26.665Z,12.93
2019-03-28T21:33:57.244Z,12.47
2019-03-28T21:36:30.329Z,12.27
2019-03-28T21:39:00.779Z,11.10
2019-03-28T21:41:33.441Z,9.00
2019-03-28T21:44:05.763Z,13.13
2019-03-28T21:46:36.318Z,8.67
2019-03-28T21:49:06.822Z,11.97
2019-03-28T21:51:37.112Z,11.90
2019-03-28T21:54:07.236Z,13.33
2019-03-28T21:56:37.380Z,12.67
2019-03-28T21:59:07.427Z,12.90
2019-03-28T22:01:37.592Z,11.63
2019-03-28T22:04:08.902Z,12.87
2019-03-28T22:06:43.178Z,11.10
2019-03-28T22:09:10.827Z,11.13
2019-03-28T22:11:40.898Z,12.17
2019-03-28T22:14:11.199Z,8.93
2019-03-28T22:16:41.371Z,12.43
2019-03-28T22:19:11.927Z,11.57
2019-03-28T22:21:42.045Z,9.83
2019-03-28T22:24:12.742Z,9.97
2019-03-28T22:26:45.886Z,11.90
2019-03-28T22:29:15.147Z,11.37
2019-03-28T22:31:45.410Z,12.93
2019-03-28T22:34:15.467Z,10.17
2019-03-28T22:36:56.490Z,10.07
2019-03-28T22:39:18.497Z,9.47
2019-03-28T22:41:49.347Z,12.70
2019-03-28T22:44:19.386Z,10.40
2019-03-28T22:46:49.487Z,11.13
2019-03-28T22:49:19.619Z,14.30
2019-03-28T22:51:49.797Z,11.77
2019-03-28T22:54:20.046Z,11.13
2019-03-28T22:56:50.600Z,14.57
2019-03-28T22:59:20.586Z,12.40
2019-03-28T23:01:52.321Z,12.87
2019-03-28T23:04:22.418Z,13.60
2019-03-28T23:06:52.547Z,10.43
2019-03-28T23:09:22.502Z,15.67
2019-03-28T23:11:52.588Z,12.47
2019-03-28T23:14:22.544Z,11.87
2019-03-28T23:16:52.600Z,12.43
2019-03-28T23:19:22.603Z,9.80
2019-03-28T23:21:52.767Z,11.23
2019-03-28T23:24:23.654Z,12.00
2019-03-28T23:26:53.838Z,14.30
2019-03-28T23:29:24.032Z,15.60
2019-03-28T23:31:54.222Z,10.40
2019-03-28T23:34:24.251Z,14.80
2019-03-28T23:36:54.356Z,12.77
2019-03-28T23:39:24.334Z,14.53
2019-03-28T23:41:55.426Z,13.67
2019-03-28T23:44:25.550Z,14.53
2019-03-28T23:46:55.689Z,12.80
2019-03-28T23:49:25.794Z,12.67
2019-03-28T23:51:55.874Z,13.17
2019-03-28T23:54:26.832Z,15.93
2019-03-28T23:56:57.064Z,14.03
2019-03-28T23:59:27.023Z,16.93
